Riplinger, Wisconsin
Current Conditions -  °F | °C
As of 10:54 AM on Tuesday 21 Oct 2014 (Local Time) from KMFI Reporting Station
Overcast Overcast  
Wind Chill: 44°   Ceiling: 1900
Heat Index: 47°   Visibility: 10mi
Dew Point: 37°   Wind: 7mph
Humidity: 68%   Direction: 80°E
Pressure: 30.23"   Gusts: NA
Location:  44.7153°N, 90.3374°W
Report Text: KMFI 211554Z AUTO 08006KT 10SM OVC019 08/03 A3023 RMK AO2 SLP245 T00830028
Loading
Personal Weather Stations






























Interactive Weather Map
Tropical Storm Tracking
New forecast layout! Learn more

10-Day Weather Forecast

Advertisements
Track Severe Weather on mobile